Time;durP1;ratioP1;P1;durP2;ratioP2;P2;SDS_P1;SDS_P2;PMS_P1;PMS_P2;Temp;Humidity;BMP_temperature;BMP_pressure;BME280_temperature;BME280_humidity;BME280_pressure;Samples;Min_cycle;Max_cycle;Signal;HPM_P1;HPM_P2
2023/07/28 00:00:16;;;;;;;10.10;5.22;;;18.90;99.90;;;;;;5113505;28;20046;-71
2023/07/28 00:02:41;;;;;;;15.75;8.05;;;18.90;99.90;;;;;;5113307;28;20375;-70
2023/07/28 00:05:07;;;;;;;16.33;9.38;;;18.90;99.90;;;;;;5112065;28;20051;-71
2023/07/28 00:07:35;;;;;;;14.00;6.90;;;18.90;99.90;;;;;;5113272;28;20062;-70
2023/07/28 00:10:01;;;;;;;16.65;8.52;;;18.90;99.90;;;;;;5113559;28;20047;-70
2023/07/28 00:12:26;;;;;;;12.70;7.78;;;18.90;99.90;;;;;;5113154;28;20144;-71
2023/07/28 00:14:52;;;;;;;15.85;8.98;;;18.90;99.90;;;;;;5112220;28;20074;-70
2023/07/28 00:17:18;;;;;;;9.65;4.90;;;18.90;99.90;;;;;;5112862;28;20481;-71
2023/07/28 00:19:43;;;;;;;15.50;8.43;;;18.90;99.90;;;;;;5113076;28;20493;-70
2023/07/28 00:22:09;;;;;;;18.08;9.63;;;18.90;99.90;;;;;;5112023;28;20051;-70
2023/07/28 00:24:34;;;;;;;17.58;10.63;;;18.90;99.90;;;;;;5113434;28;20043;-70
2023/07/28 00:27:00;;;;;;;15.20;10.40;;;18.90;99.90;;;;;;5113072;28;20044;-71
2023/07/28 00:29:26;;;;;;;22.60;13.02;;;18.90;99.90;;;;;;5113292;28;20408;-70
2023/07/28 00:31:52;;;;;;;23.48;13.77;;;18.90;99.90;;;;;;5113234;28;20167;-71
2023/07/28 00:34:18;;;;;;;26.15;15.27;;;18.90;99.90;;;;;;5112820;28;20120;-71
2023/07/28 00:36:43;;;;;;;20.35;11.90;;;18.90;99.90;;;;;;5112931;28;20122;-70
2023/07/28 00:39:09;;;;;;;24.45;13.98;;;18.90;99.90;;;;;;5112925;28;20114;-70
2023/07/28 00:41:35;;;;;;;20.65;12.20;;;18.90;99.90;;;;;;5112949;28;20084;-70
2023/07/28 00:44:00;;;;;;;23.15;14.48;;;18.90;99.90;;;;;;5112695;28;20050;-70
2023/07/28 00:46:26;;;;;;;23.33;12.68;;;18.90;99.90;;;;;;5111774;28;20092;-70
2023/07/28 00:48:53;;;;;;;25.10;15.50;;;18.90;99.90;;;;;;5111762;28;20400;-71
2023/07/28 00:51:19;;;;;;;23.08;13.85;;;18.90;99.90;;;;;;5114990;28;20397;-71
2023/07/28 00:53:44;;;;;;;29.15;15.07;;;18.90;99.90;;;;;;5116923;28;20043;-70
2023/07/28 00:56:11;;;;;;;26.73;12.75;;;18.90;99.90;;;;;;5116880;28;20045;-70
2023/07/28 00:58:37;;;;;;;20.95;12.55;;;18.90;99.90;;;;;;5116389;28;20051;-70
2023/07/28 01:01:02;;;;;;;21.13;11.73;;;18.90;99.90;;;;;;5116597;28;20112;-70
2023/07/28 01:03:29;;;;;;;21.00;11.57;;;18.90;99.90;;;;;;5116628;28;20079;-70
2023/07/28 01:06:06;;;;;;;22.45;12.45;;;18.90;99.90;;;;;;5116560;28;20055;-70
2023/07/28 01:08:40;;;;;;;16.42;11.02;;;18.90;99.90;;;;;;5116385;28;20043;-70
2023/07/28 01:11:06;;;;;;;19.63;11.05;;;18.90;99.90;;;;;;5116394;28;20126;-70
2023/07/28 01:13:31;;;;;;;21.70;11.48;;;18.90;99.90;;;;;;5116288;28;20090;-70
2023/07/28 01:15:57;;;;;;;18.20;10.80;;;18.90;99.90;;;;;;5116115;28;20501;-70
2023/07/28 01:18:23;;;;;;;21.98;10.88;;;18.90;99.90;;;;;;5114802;28;20401;-70
2023/07/28 01:20:55;;;;;;;23.88;10.48;;;18.90;99.90;;;;;;5116457;28;20039;-70
2023/07/28 01:23:26;;;;;;;18.73;9.93;;;18.90;99.90;;;;;;5116413;28;20047;-70
2023/07/28 01:26:07;;;;;;;16.65;9.55;;;18.90;99.90;;;;;;5115808;28;20055;-70
2023/07/28 01:28:34;;;;;;;17.80;10.40;;;18.80;99.90;;;;;;5115114;28;20043;-70
2023/07/28 01:31:05;;;;;;;20.05;9.90;;;18.90;99.90;;;;;;5115967;28;20040;-70
2023/07/28 01:33:31;;;;;;;21.30;9.90;;;18.80;99.90;;;;;;5115900;28;20255;-70
2023/07/28 01:35:58;;;;;;;22.85;10.13;;;18.90;99.90;;;;;;5116022;28;20078;-70
2023/07/28 01:38:24;;;;;;;16.88;9.27;;;18.80;99.90;;;;;;5115613;28;20051;-70
2023/07/28 01:40:50;;;;;;;20.13;10.00;;;18.90;99.90;;;;;;5114629;28;20044;-70
2023/07/28 01:43:15;;;;;;;22.42;11.40;;;18.90;99.90;;;;;;5115840;28;20048;-71
2023/07/28 01:45:41;;;;;;;20.25;10.48;;;18.80;99.90;;;;;;5115330;28;20413;-70
2023/07/28 01:48:09;;;;;;;20.65;10.85;;;18.80;99.90;;;;;;5115678;28;20032;-70
2023/07/28 01:50:35;;;;;;;16.35;9.20;;;18.90;99.90;;;;;;5115830;28;20038;-71
2023/07/28 01:53:02;;;;;;;24.70;11.38;;;18.80;99.90;;;;;;5115677;28;20046;-71
2023/07/28 01:55:30;;;;;;;19.73;10.95;;;18.80;99.90;;;;;;5115605;28;20212;-70
2023/07/28 01:57:58;;;;;;;20.38;10.98;;;18.80;99.90;;;;;;5115642;28;20488;-70
2023/07/28 02:00:24;;;;;;;22.67;10.27;;;18.80;99.90;;;;;;5115439;28;20055;-71
2023/07/28 02:02:50;;;;;;;28.38;12.15;;;18.80;99.90;;;;;;5114683;28;20097;-70
2023/07/28 02:05:19;;;;;;;23.52;11.77;;;18.80;99.90;;;;;;5115260;28;20602;-71
2023/07/28 02:07:45;;;;;;;28.63;12.40;;;18.80;99.90;;;;;;5115429;28;20032;-71
2023/07/28 02:10:11;;;;;;;21.35;9.98;;;18.80;99.90;;;;;;5115022;28;20128;-70
2023/07/28 02:12:40;;;;;;;19.48;8.95;;;18.80;99.90;;;;;;5114291;28;20442;-70
2023/07/28 02:15:11;;;;;;;22.83;10.18;;;18.80;99.90;;;;;;5115164;28;20043;-71
2023/07/28 02:17:37;;;;;;;19.27;9.07;;;18.80;99.90;;;;;;5114018;28;20043;-70
2023/07/28 02:20:03;;;;;;;22.45;10.15;;;18.80;99.90;;;;;;5115053;28;20626;-71
2023/07/28 02:22:29;;;;;;;19.02;8.43;;;18.80;99.90;;;;;;5115073;28;20379;-71
2023/07/28 02:24:55;;;;;;;20.23;10.00;;;18.80;99.90;;;;;;5113788;28;20043;-71
2023/07/28 02:27:22;;;;;;;29.10;9.88;;;18.80;99.90;;;;;;5113611;28;20061;-70
2023/07/28 02:29:50;;;;;;;25.30;10.07;;;18.80;99.90;;;;;;5114808;28;20043;-71
2023/07/28 02:32:16;;;;;;;21.08;9.77;;;18.80;99.90;;;;;;5114716;28;20071;-70
2023/07/28 02:34:41;;;;;;;20.95;9.30;;;18.90;99.90;;;;;;5114799;28;20507;-71
2023/07/28 02:37:07;;;;;;;24.45;10.05;;;18.80;99.90;;;;;;5114688;28;20047;-71
2023/07/28 02:39:32;;;;;;;22.35;8.75;;;18.80;99.90;;;;;;5114333;28;20087;-71
2023/07/28 02:41:58;;;;;;;19.35;9.43;;;18.80;99.90;;;;;;5115078;28;20381;-71
2023/07/28 02:44:23;;;;;;;20.48;9.10;;;18.80;99.90;;;;;;5114654;28;20055;-71
2023/07/28 02:46:49;;;;;;;21.75;9.32;;;18.80;99.90;;;;;;5114540;28;20044;-71
2023/07/28 02:49:15;;;;;;;23.60;9.43;;;18.80;99.90;;;;;;5114529;28;20074;-71
2023/07/28 02:51:41;;;;;;;22.00;9.27;;;18.80;99.90;;;;;;5114412;28;20064;-71
2023/07/28 02:54:07;;;;;;;15.18;8.30;;;18.80;99.90;;;;;;5112991;28;20043;-71
2023/07/28 02:56:37;;;;;;;21.00;9.07;;;18.80;99.90;;;;;;5114224;28;20073;-71
2023/07/28 02:59:06;;;;;;;23.67;8.55;;;18.80;99.90;;;;;;5114471;28;20055;-71
2023/07/28 03:01:35;;;;;;;22.52;9.38;;;18.80;99.90;;;;;;5114048;28;20099;-71
2023/07/28 03:04:01;;;;;;;18.83;8.73;;;18.80;99.90;;;;;;5113676;28;20445;-70
2023/07/28 03:06:27;;;;;;;19.60;8.52;;;18.80;99.90;;;;;;5109276;28;20045;-71
2023/07/28 03:08:53;;;;;;;18.17;7.88;;;18.80;99.90;;;;;;5100677;28;20036;-70
2023/07/28 03:11:18;;;;;;;20.10;8.40;;;18.80;99.90;;;;;;5107940;28;20047;-71
2023/07/28 03:13:44;;;;;;;18.90;8.13;;;18.80;99.90;;;;;;5112402;28;20039;-71
2023/07/28 03:16:10;;;;;;;21.60;8.02;;;18.80;99.90;;;;;;5112350;28;20031;-71
2023/07/28 03:18:35;;;;;;;19.55;7.18;;;18.90;99.90;;;;;;5112651;28;20044;-70
2023/07/28 03:21:01;;;;;;;25.90;8.63;;;18.80;99.90;;;;;;5112861;28;20043;-71
2023/07/28 03:23:27;;;;;;;19.27;7.35;;;18.80;99.90;;;;;;5112603;28;20036;-71
2023/07/28 03:25:52;;;;;;;17.30;7.70;;;18.80;99.90;;;;;;5098613;28;20044;-70
2023/07/28 03:28:18;;;;;;;18.70;7.13;;;18.80;99.90;;;;;;5093402;28;20394;-71
2023/07/28 03:30:44;;;;;;;21.50;7.65;;;18.80;99.90;;;;;;5092401;28;20397;-70
2023/07/28 03:33:10;;;;;;;22.02;7.97;;;18.80;99.90;;;;;;5101334;28;20039;-71
2023/07/28 03:35:35;;;;;;;15.77;6.18;;;18.80;99.90;;;;;;5113320;28;20067;-71
2023/07/28 03:38:01;;;;;;;19.42;7.30;;;18.80;99.90;;;;;;5112514;28;20051;-71
2023/07/28 03:40:28;;;;;;;18.15;7.78;;;18.80;99.90;;;;;;5113768;28;20111;-70
2023/07/28 03:42:54;;;;;;;22.67;9.13;;;18.80;99.90;;;;;;5113714;28;20082;-70
2023/07/28 03:45:19;;;;;;;16.58;6.75;;;18.80;99.90;;;;;;5113745;28;20069;-70
2023/07/28 03:47:45;;;;;;;16.70;7.78;;;18.70;99.90;;;;;;5113589;28;20036;-71
2023/07/28 03:50:10;;;;;;;20.05;8.80;;;18.70;99.90;;;;;;5113592;28;20053;-70
2023/07/28 03:52:36;;;;;;;18.73;8.15;;;18.80;99.90;;;;;;5113353;28;20130;-70
2023/07/28 03:55:02;;;;;;;22.15;8.00;;;18.80;99.90;;;;;;5113338;28;20119;-70
2023/07/28 03:57:28;;;;;;;15.60;7.07;;;18.70;99.90;;;;;;5112559;28;20039;-70
2023/07/28 03:59:53;;;;;;;18.70;8.32;;;18.70;99.90;;;;;;5113545;28;20096;-71
2023/07/28 04:02:19;;;;;;;19.60;8.35;;;18.70;99.90;;;;;;5112841;28;20104;-71
2023/07/28 04:04:45;;;;;;;17.75;8.27;;;18.70;99.90;;;;;;5113021;28;20044;-70
2023/07/28 04:07:10;;;;;;;15.95;7.25;;;18.70;99.90;;;;;;5113292;28;20048;-70
2023/07/28 04:09:36;;;;;;;12.00;5.55;;;18.70;99.90;;;;;;5113366;28;20044;-70
2023/07/28 04:12:02;;;;;;;10.68;5.43;;;18.70;99.90;;;;;;5113054;28;20043;-71
2023/07/28 04:14:27;;;;;;;17.00;6.93;;;18.70;99.90;;;;;;5111970;28;20036;-70
2023/07/28 04:16:53;;;;;;;16.33;6.95;;;18.70;99.90;;;;;;5113055;28;20387;-70
2023/07/28 04:19:18;;;;;;;15.35;6.18;;;18.70;99.90;;;;;;5111756;28;20053;-70
2023/07/28 04:21:45;;;;;;;15.63;7.45;;;18.70;99.90;;;;;;5112656;28;20039;-70
2023/07/28 04:24:11;;;;;;;14.90;6.72;;;18.70;99.90;;;;;;5111981;28;20051;-70
2023/07/28 04:26:36;;;;;;;20.60;8.60;;;18.70;99.90;;;;;;5115141;28;20051;-70
2023/07/28 04:29:02;;;;;;;22.27;9.02;;;18.70;99.90;;;;;;5116944;28;20039;-70
2023/07/28 04:31:28;;;;;;;20.45;7.95;;;18.80;99.90;;;;;;5116561;28;20118;-70
2023/07/28 04:33:53;;;;;;;20.55;8.15;;;18.70;99.90;;;;;;5116890;28;20035;-70
2023/07/28 04:36:19;;;;;;;20.25;8.15;;;18.80;99.90;;;;;;5115408;28;20048;-70
2023/07/28 04:38:44;;;;;;;27.73;9.27;;;18.70;99.90;;;;;;5116701;28;20047;-70
2023/07/28 04:41:13;;;;;;;18.92;8.82;;;18.80;99.90;;;;;;5117060;28;20046;-70
2023/07/28 04:43:38;;;;;;;15.45;7.63;;;18.80;99.90;;;;;;5116746;28;20050;-70
2023/07/28 04:46:04;;;;;;;16.80;7.22;;;18.80;99.90;;;;;;5116782;28;20047;-70
2023/07/28 04:48:30;;;;;;;23.55;9.48;;;18.70;99.90;;;;;;5116626;28;20440;-70
2023/07/28 04:50:55;;;;;;;21.33;9.25;;;18.80;99.90;;;;;;5116038;28;20047;-71
2023/07/28 04:53:21;;;;;;;19.40;8.77;;;18.80;99.90;;;;;;5116784;28;20965;-70
2023/07/28 04:55:46;;;;;;;21.63;8.60;;;18.80;99.90;;;;;;5114665;28;20052;-70
2023/07/28 04:58:12;;;;;;;18.23;8.43;;;18.80;99.90;;;;;;5115283;28;20189;-71
2023/07/28 05:00:38;;;;;;;23.58;8.63;;;18.80;99.90;;;;;;5115715;28;20066;-70
2023/07/28 05:03:03;;;;;;;16.52;7.93;;;18.80;99.90;;;;;;5116680;28;20044;-70
2023/07/28 05:05:29;;;;;;;22.85;8.43;;;18.80;99.90;;;;;;5115917;28;20059;-70
2023/07/28 05:07:55;;;;;;;19.27;8.60;;;18.80;99.90;;;;;;5097859;28;20050;-70
2023/07/28 05:10:21;;;;;;;18.73;8.70;;;18.80;99.90;;;;;;5098588;28;20051;-71
2023/07/28 05:12:46;;;;;;;18.50;8.10;;;18.90;99.90;;;;;;5116357;28;20043;-70
2023/07/28 05:15:14;;;;;;;21.05;8.55;;;18.80;99.90;;;;;;5114535;28;20075;-71
2023/07/28 05:17:40;;;;;;;21.70;8.07;;;18.80;99.90;;;;;;5116086;28;20043;-71
2023/07/28 05:20:07;;;;;;;19.63;8.50;;;18.90;99.90;;;;;;5116449;28;20046;-70
2023/07/28 05:22:33;;;;;;;19.88;7.38;;;18.90;99.90;;;;;;5114278;28;20042;-70
2023/07/28 05:24:58;;;;;;;18.83;7.40;;;18.90;99.90;;;;;;5113894;28;20043;-70
2023/07/28 05:27:24;;;;;;;20.65;8.07;;;18.90;99.90;;;;;;5115770;28;20036;-70
2023/07/28 05:29:50;;;;;;;20.10;7.72;;;18.90;99.90;;;;;;5115500;28;20039;-70
2023/07/28 05:32:16;;;;;;;22.45;8.10;;;18.90;99.90;;;;;;5114789;28;20066;-71
2023/07/28 05:34:44;;;;;;;19.05;8.43;;;18.90;99.90;;;;;;5115029;28;20553;-71
2023/07/28 05:37:10;;;;;;;18.35;7.95;;;18.90;99.90;;;;;;5114745;28;20056;-71
2023/07/28 05:39:36;;;;;;;17.00;7.70;;;18.90;99.90;;;;;;5114117;28;20040;-70
2023/07/28 05:42:02;;;;;;;23.92;7.63;;;18.90;99.90;;;;;;5114517;28;20089;-71
2023/07/28 05:44:28;;;;;;;20.05;8.65;;;18.90;99.90;;;;;;5111267;28;20122;-70
2023/07/28 05:46:53;;;;;;;15.55;7.20;;;18.90;99.90;;;;;;5115456;28;20032;-70
2023/07/28 05:49:19;;;;;;;19.60;8.20;;;18.90;99.90;;;;;;5114209;28;20524;-70
2023/07/28 05:51:45;;;;;;;19.48;7.38;;;18.90;99.90;;;;;;5098396;28;20051;-71
2023/07/28 05:54:14;;;;;;;19.98;8.77;;;18.90;99.90;;;;;;5109098;28;20079;-70
2023/07/28 05:56:40;;;;;;;17.08;8.02;;;18.90;99.90;;;;;;5110543;28;20059;-71
2023/07/28 05:59:06;;;;;;;20.45;8.82;;;19.00;99.90;;;;;;5113506;28;20051;-70
2023/07/28 06:01:33;;;;;;;20.45;7.85;;;19.00;99.90;;;;;;5114040;28;20052;-71
2023/07/28 06:03:59;;;;;;;21.13;8.10;;;19.00;99.90;;;;;;5114883;28;20055;-70
2023/07/28 06:06:26;;;;;;;18.67;8.07;;;19.00;99.90;;;;;;5114592;28;20046;-70
2023/07/28 06:08:52;;;;;;;20.90;7.47;;;19.00;99.90;;;;;;5115075;28;20047;-71
2023/07/28 06:11:18;;;;;;;24.25;7.82;;;19.00;99.90;;;;;;5096169;28;20112;-71
2023/07/28 06:13:45;;;;;;;16.52;6.22;;;19.00;99.90;;;;;;5115179;28;20481;-73
2023/07/28 06:16:10;;;;;;;15.25;6.80;;;19.10;99.90;;;;;;5114882;28;20493;-73
2023/07/28 06:18:36;;;;;;;17.83;6.80;;;19.00;99.90;;;;;;5113956;28;20050;-71
2023/07/28 06:21:01;;;;;;;14.48;7.18;;;19.10;99.90;;;;;;5115309;28;20443;-70
2023/07/28 06:23:27;;;;;;;15.88;7.03;;;19.10;99.90;;;;;;5115181;28;20086;-70
2023/07/28 06:25:54;;;;;;;17.00;5.95;;;19.10;99.90;;;;;;5114592;28;20130;-70
2023/07/28 06:28:20;;;;;;;14.23;6.63;;;19.10;99.90;;;;;;5113722;28;20122;-70
2023/07/28 06:30:46;;;;;;;15.27;5.45;;;19.10;99.90;;;;;;5114892;28;20051;-70
2023/07/28 06:33:11;;;;;;;13.38;5.70;;;19.20;99.90;;;;;;5114171;28;20443;-70
2023/07/28 06:35:37;;;;;;;16.17;6.30;;;19.20;99.90;;;;;;5114042;28;20378;-70
2023/07/28 06:38:03;;;;;;;15.48;5.22;;;19.20;99.90;;;;;;5114638;28;20044;-70
2023/07/28 06:40:29;;;;;;;17.23;5.63;;;19.20;99.90;;;;;;5113110;28;20067;-71
2023/07/28 06:42:55;;;;;;;16.45;5.57;;;19.20;99.90;;;;;;5114436;28;20166;-70
2023/07/28 06:45:21;;;;;;;12.13;5.45;;;19.20;99.90;;;;;;5113792;28;20111;-70
2023/07/28 06:47:46;;;;;;;18.75;5.82;;;19.30;99.90;;;;;;5113379;28;20056;-71
2023/07/28 06:50:12;;;;;;;12.73;5.57;;;19.30;99.90;;;;;;5109751;28;20044;-71
2023/07/28 06:52:38;;;;;;;13.95;6.18;;;19.30;99.90;;;;;;5114463;28;20036;-70
2023/07/28 06:55:04;;;;;;;13.82;5.32;;;19.30;99.90;;;;;;5114531;28;20397;-70
2023/07/28 06:57:30;;;;;;;12.43;5.25;;;19.40;99.90;;;;;;5114384;28;20127;-70
2023/07/28 06:59:56;;;;;;;13.35;5.80;;;19.40;99.90;;;;;;5114168;28;20055;-72
2023/07/28 07:02:22;;;;;;;16.58;5.70;;;19.50;99.90;;;;;;5113038;28;20130;-73
2023/07/28 07:04:48;;;;;;;12.35;5.72;;;19.50;99.90;;;;;;5114431;28;20130;-73
2023/07/28 07:07:13;;;;;;;12.90;5.65;;;19.50;99.90;;;;;;5114110;28;20092;-73
2023/07/28 07:09:40;;;;;;;12.55;4.78;;;19.50;99.90;;;;;;5112617;28;20468;-71
2023/07/28 07:12:07;;;;;;;11.75;4.95;;;19.60;99.90;;;;;;5093855;28;20035;-71
2023/07/28 07:14:33;;;;;;;11.35;4.63;;;19.60;99.90;;;;;;5100142;28;20093;-73
2023/07/28 07:16:59;;;;;;;12.23;4.75;;;19.70;99.90;;;;;;5095957;28;20044;-73
2023/07/28 07:19:28;;;;;;;12.93;4.53;;;19.70;99.90;;;;;;5094144;28;20520;-73
2023/07/28 07:21:54;;;;;;;12.73;5.07;;;19.80;99.90;;;;;;5108204;28;20382;-72
2023/07/28 07:24:20;;;;;;;9.15;4.30;;;19.80;99.90;;;;;;5113440;28;20054;-73
2023/07/28 07:26:46;;;;;;;9.82;4.00;;;19.90;99.90;;;;;;5111855;28;20119;-75
2023/07/28 07:29:12;;;;;;;9.30;4.22;;;19.90;99.90;;;;;;5104235;28;20460;-73
2023/07/28 07:31:41;;;;;;;10.45;5.00;;;20.00;99.90;;;;;;5110469;28;20059;-72
2023/07/28 07:34:06;;;;;;;9.85;4.50;;;20.00;99.90;;;;;;5112594;28;20035;-73
2023/07/28 07:36:32;;;;;;;12.18;4.15;;;20.10;99.90;;;;;;5112179;28;20066;-73
2023/07/28 07:38:58;;;;;;;10.23;3.95;;;20.10;99.90;;;;;;5113362;28;20047;-73
2023/07/28 07:41:24;;;;;;;10.98;4.05;;;20.20;99.90;;;;;;5102660;28;20051;-73
2023/07/28 07:43:53;;;;;;;7.95;4.22;;;20.20;99.90;;;;;;5099516;28;20098;-72
2023/07/28 07:46:22;;;;;;;8.98;3.83;;;20.30;99.90;;;;;;5113802;28;20048;-73
2023/07/28 07:48:47;;;;;;;8.60;3.50;;;20.30;99.90;;;;;;5094977;28;20173;-73
2023/07/28 07:51:14;;;;;;;9.10;3.85;;;20.40;99.90;;;;;;5111395;28;20142;-73
2023/07/28 07:53:39;;;;;;;10.27;3.63;;;20.40;99.90;;;;;;5111913;28;20047;-72
2023/07/28 07:56:06;;;;;;;10.00;3.67;;;20.50;99.90;;;;;;5113238;28;20046;-73
2023/07/28 07:58:32;;;;;;;8.27;3.40;;;20.60;99.90;;;;;;5111979;28;20052;-73
2023/07/28 08:00:58;;;;;;;9.30;3.50;;;20.60;99.90;;;;;;5112434;28;20132;-73
2023/07/28 08:03:24;;;;;;;7.40;3.45;;;20.60;99.90;;;;;;5113322;28;20507;-73
2023/07/28 08:05:53;;;;;;;8.40;3.50;;;20.70;99.90;;;;;;5112483;28;20044;-73
2023/07/28 08:08:19;;;;;;;7.05;3.25;;;20.70;99.90;;;;;;5113137;28;20114;-73
2023/07/28 08:10:49;;;;;;;9.85;3.60;;;20.80;99.90;;;;;;5113169;28;20165;-73
2023/07/28 08:13:15;;;;;;;8.32;3.67;;;20.80;99.90;;;;;;5112997;28;20512;-73
2023/07/28 08:15:43;;;;;;;9.05;3.80;;;20.80;99.90;;;;;;5112409;28;20043;-73
2023/07/28 08:18:08;;;;;;;10.63;3.60;;;20.90;99.90;;;;;;5112176;28;20054;-73
2023/07/28 08:20:34;;;;;;;7.55;3.10;;;20.90;99.90;;;;;;5095643;28;20393;-73
2023/07/28 08:22:59;;;;;;;12.27;2.92;;;21.00;99.90;;;;;;5113066;28;20155;-73
2023/07/28 08:25:25;;;;;;;8.48;3.28;;;21.00;99.90;;;;;;5112808;28;20143;-73
2023/07/28 08:27:51;;;;;;;11.57;3.28;;;21.10;99.90;;;;;;5113187;28;20035;-73
2023/07/28 08:30:16;;;;;;;7.40;2.95;;;21.10;99.90;;;;;;5111987;28;20413;-73
2023/07/28 08:32:43;;;;;;;11.38;3.20;;;21.20;99.90;;;;;;5112228;28;20043;-73
2023/07/28 08:35:09;;;;;;;7.65;2.67;;;21.30;99.90;;;;;;5112173;28;20462;-73
2023/07/28 08:37:35;;;;;;;7.28;2.65;;;21.30;99.90;;;;;;5112183;28;20091;-73
2023/07/28 08:40:01;;;;;;;6.47;2.90;;;21.40;99.90;;;;;;5112091;28;20078;-73
2023/07/28 08:42:29;;;;;;;10.10;3.25;;;21.50;99.90;;;;;;5112328;28;20424;-73
2023/07/28 08:44:55;;;;;;;8.30;3.35;;;21.60;99.90;;;;;;5109977;28;20043;-73
2023/07/28 08:47:21;;;;;;;7.90;3.35;;;21.60;99.90;;;;;;5112728;28;20443;-73
2023/07/28 08:49:47;;;;;;;8.85;3.08;;;21.70;99.90;;;;;;5112711;28;20040;-74
2023/07/28 08:52:16;;;;;;;6.70;2.65;;;21.70;99.90;;;;;;5111914;28;20031;-73
2023/07/28 08:54:42;;;;;;;9.32;3.35;;;21.80;99.90;;;;;;5112748;28;20497;-74
2023/07/28 08:57:09;;;;;;;9.20;3.05;;;21.80;99.90;;;;;;5112047;28;20046;-73
2023/07/28 08:59:36;;;;;;;7.18;3.05;;;21.90;99.90;;;;;;5111696;28;20515;-73
2023/07/28 09:02:02;;;;;;;8.43;3.15;;;21.90;99.90;;;;;;5112087;28;20083;-74
2023/07/28 09:04:28;;;;;;;7.28;3.10;;;21.90;99.90;;;;;;5112986;28;20082;-73
2023/07/28 09:06:54;;;;;;;10.43;2.90;;;22.00;99.90;;;;;;5111964;28;20040;-73
2023/07/28 09:09:22;;;;;;;6.57;2.60;;;22.00;99.90;;;;;;5111317;28;20035;-74
2023/07/28 09:11:52;;;;;;;7.57;2.85;;;22.00;99.90;;;;;;5112425;28;20085;-74
2023/07/28 09:14:19;;;;;;;6.90;2.55;;;22.00;99.90;;;;;;5114651;28;20052;-74
2023/07/28 09:16:47;;;;;;;7.80;3.10;;;22.00;99.90;;;;;;5114630;28;20112;-74
2023/07/28 09:19:13;;;;;;;8.82;2.85;;;22.00;99.90;;;;;;5114193;28;20039;-74
2023/07/28 09:21:43;;;;;;;7.90;2.90;;;22.10;99.90;;;;;;5114454;28;20047;-74
2023/07/28 09:24:13;;;;;;;5.50;2.28;;;22.10;99.90;;;;;;5115478;28;20035;-74
2023/07/28 09:26:39;;;;;;;7.78;2.90;;;22.10;99.90;;;;;;5112220;28;20043;-73
2023/07/28 09:29:17;;;;;;;7.45;2.75;;;22.10;99.90;;;;;;5116091;28;20050;-74
2023/07/28 09:31:44;;;;;;;5.72;2.60;;;22.10;99.90;;;;;;5115713;28;20032;-74
2023/07/28 09:34:10;;;;;;;8.57;3.35;;;22.20;99.90;;;;;;5115188;28;20126;-73
2023/07/28 09:36:38;;;;;;;7.68;2.90;;;22.20;99.90;;;;;;5115436;28;20540;-73
2023/07/28 09:39:08;;;;;;;5.47;2.40;;;22.20;99.90;;;;;;5114770;28;20031;-73
2023/07/28 09:41:38;;;;;;;9.60;3.40;;;22.20;99.90;;;;;;5108613;28;20117;-73
2023/07/28 09:44:05;;;;;;;9.85;3.65;;;22.30;99.90;;;;;;5115327;27;20408;-73
2023/07/28 09:46:35;;;;;;;7.35;3.10;;;22.30;99.90;;;;;;5114837;28;20044;-73
2023/07/28 09:49:04;;;;;;;5.53;2.63;;;22.30;99.90;;;;;;5115174;28;20044;-73
2023/07/28 09:51:34;;;;;;;6.93;2.92;;;22.30;99.90;;;;;;5114366;28;20056;-73
2023/07/28 09:54:05;;;;;;;8.45;3.20;;;22.30;99.80;;;;;;5115298;28;20090;-73
2023/07/28 09:56:32;;;;;;;6.88;3.03;;;22.30;99.50;;;;;;5113989;28;20508;-71
2023/07/28 09:59:01;;;;;;;7.03;3.22;;;22.30;99.90;;;;;;5114360;27;20122;-71
2023/07/28 10:01:28;;;;;;;7.63;2.88;;;22.30;99.80;;;;;;5114867;28;20051;-71
2023/07/28 10:03:53;;;;;;;5.95;2.45;;;22.30;99.60;;;;;;5115311;27;20404;-71
2023/07/28 10:06:22;;;;;;;6.85;2.65;;;22.40;99.50;;;;;;5098584;28;20130;-71
2023/07/28 10:08:48;;;;;;;6.25;2.70;;;22.40;99.60;;;;;;5110727;28;20481;-71
2023/07/28 10:11:16;;;;;;;9.95;2.70;;;22.40;99.90;;;;;;5110925;28;20115;-72
2023/07/28 10:13:44;;;;;;;7.40;2.60;;;22.40;99.90;;;;;;5111019;28;20035;-72
2023/07/28 10:16:10;;;;;;;7.10;2.70;;;22.50;99.80;;;;;;5113122;28;20035;-71
2023/07/28 10:18:36;;;;;;;5.43;3.00;;;22.60;99.80;;;;;;5114806;28;20050;-71
2023/07/28 10:21:07;;;;;;;6.18;2.63;;;22.60;99.50;;;;;;5114366;28;20048;-72
2023/07/28 10:23:37;;;;;;;7.97;2.92;;;22.70;99.20;;;;;;5113384;28;20136;-72
2023/07/28 10:26:05;;;;;;;6.75;3.03;;;22.70;99.40;;;;;;5114733;28;20412;-71
2023/07/28 10:28:41;;;;;;;9.43;3.03;;;22.80;99.00;;;;;;5115073;28;20044;-74
2023/07/28 10:31:10;;;;;;;7.13;2.95;;;22.80;98.90;;;;;;5114630;28;20489;-71
2023/07/28 10:33:43;;;;;;;9.32;3.05;;;22.90;99.00;;;;;;5115064;28;20051;-71
2023/07/28 10:36:21;;;;;;;7.22;2.75;;;22.90;98.70;;;;;;5114775;28;20055;-71
2023/07/28 10:38:58;;;;;;;6.85;2.90;;;22.90;98.50;;;;;;5113459;28;20039;-72
2023/07/28 10:41:25;;;;;;;8.20;2.88;;;23.00;98.70;;;;;;5115164;28;20052;-72
2023/07/28 10:43:51;;;;;;;5.25;3.00;;;23.10;99.00;;;;;;5114661;28;20515;-71
2023/07/28 10:46:18;;;;;;;5.82;2.83;;;23.10;98.70;;;;;;5114363;28;20071;-71
2023/07/28 10:48:48;;;;;;;6.70;3.05;;;23.20;98.80;;;;;;5114702;28;20067;-72
2023/07/28 10:51:25;;;;;;;6.57;2.47;;;23.20;98.40;;;;;;5114574;28;20147;-72
2023/07/28 10:53:54;;;;;;;9.48;3.28;;;23.30;98.20;;;;;;5114833;28;20122;-72
2023/07/28 10:56:20;;;;;;;7.80;3.20;;;23.30;98.50;;;;;;5114208;28;20100;-71
2023/07/28 10:58:45;;;;;;;7.00;2.78;;;23.40;98.10;;;;;;5114426;28;20401;-72
2023/07/28 11:01:11;;;;;;;6.10;2.70;;;23.40;97.70;;;;;;5114403;28;20611;-73
2023/07/28 11:03:37;;;;;;;8.55;3.10;;;23.50;97.80;;;;;;5096275;28;20134;-72
2023/07/28 11:06:04;;;;;;;6.75;2.83;;;23.60;97.50;;;;;;5112957;28;20112;-71
2023/07/28 11:08:29;;;;;;;5.32;2.65;;;23.60;97.40;;;;;;5114456;28;20051;-71
2023/07/28 11:10:55;;;;;;;6.78;2.95;;;23.60;97.50;;;;;;5114181;28;20093;-72
2023/07/28 11:13:22;;;;;;;7.43;2.92;;;23.70;97.20;;;;;;5114301;27;20127;-71
2023/07/28 11:15:48;;;;;;;7.88;2.70;;;23.70;97.00;;;;;;5114066;28;20081;-71
2023/07/28 11:18:15;;;;;;;7.40;3.28;;;23.80;97.00;;;;;;5113834;28;20039;-71
2023/07/28 11:20:42;;;;;;;8.30;3.10;;;23.90;96.70;;;;;;5113694;28;20390;-71
2023/07/28 11:23:08;;;;;;;8.20;3.33;;;23.90;96.80;;;;;;5113755;28;20126;-71
2023/07/28 11:25:35;;;;;;;7.43;2.90;;;23.90;96.50;;;;;;5114096;28;20043;-71
2023/07/28 11:28:05;;;;;;;5.78;2.72;;;24.00;96.30;;;;;;5112819;28;20054;-71
2023/07/28 11:30:31;;;;;;;9.23;2.95;;;24.00;96.10;;;;;;5113920;28;20100;-71
2023/07/28 11:32:58;;;;;;;8.05;3.30;;;24.00;96.20;;;;;;5113816;28;20036;-71
2023/07/28 11:35:23;;;;;;;5.25;2.92;;;24.00;96.10;;;;;;5112718;28;20139;-71
2023/07/28 11:37:52;;;;;;;8.48;3.28;;;24.10;96.40;;;;;;5113345;28;20126;-72
2023/07/28 11:40:19;;;;;;;6.63;3.15;;;24.10;96.00;;;;;;5112419;28;20043;-71
2023/07/28 11:42:50;;;;;;;6.72;3.17;;;24.10;95.70;;;;;;5113120;28;20462;-72
2023/07/28 11:45:22;;;;;;;8.77;3.17;;;24.10;95.60;;;;;;5113135;28;20059;-71
2023/07/28 11:47:58;;;;;;;5.95;3.28;;;24.10;95.50;;;;;;5111439;28;20466;-71
2023/07/28 11:50:29;;;;;;;5.97;2.88;;;24.10;95.80;;;;;;5113556;28;20043;-72
2023/07/28 11:52:56;;;;;;;6.90;2.88;;;24.10;95.30;;;;;;5113099;28;20456;-73
2023/07/28 11:55:23;;;;;;;5.53;3.05;;;24.10;95.70;;;;;;5112327;28;20500;-73
2023/07/28 11:57:51;;;;;;;7.32;3.40;;;24.10;95.80;;;;;;5111372;28;20146;-73
2023/07/28 12:00:16;;;;;;;5.88;3.17;;;24.20;95.60;;;;;;5107741;28;20493;-73
2023/07/28 12:02:43;;;;;;;8.45;4.03;;;24.10;95.50;;;;;;5103804;28;20039;-72
2023/07/28 12:05:15;;;;;;;6.65;3.67;;;24.20;95.60;;;;;;5105104;28;20048;-72
2023/07/28 12:07:46;;;;;;;9.90;4.50;;;24.10;95.80;;;;;;5097837;28;20044;-73
2023/07/28 12:10:13;;;;;;;9.63;4.68;;;24.20;95.90;;;;;;5100350;28;20051;-73
2023/07/28 12:12:45;;;;;;;9.57;4.70;;;24.20;96.30;;;;;;5093035;28;20043;-75
2023/07/28 12:15:27;;;;;;;6.15;3.72;;;24.20;96.30;;;;;;5109623;28;20035;-75
2023/07/28 12:18:09;;;;;;;6.85;3.72;;;24.10;96.10;;;;;;5106602;28;20409;-75
2023/07/28 12:20:36;;;;;;;8.18;4.15;;;24.20;96.50;;;;;;5093377;28;20100;-73
2023/07/28 12:23:02;;;;;;;6.85;3.40;;;24.20;96.30;;;;;;5097990;28;20071;-73
2023/07/28 12:25:29;;;;;;;7.25;3.67;;;24.30;96.30;;;;;;5109124;28;20428;-73
2023/07/28 12:27:55;;;;;;;7.78;3.25;;;24.30;96.40;;;;;;5108423;28;20120;-73
2023/07/28 12:30:21;;;;;;;9.60;3.90;;;24.30;96.70;;;;;;5111449;28;20039;-73
2023/07/28 12:32:47;;;;;;;8.80;3.67;;;24.40;97.10;;;;;;5098513;28;20389;-73
2023/07/28 12:35:13;;;;;;;8.15;3.85;;;24.40;96.50;;;;;;5112873;28;20127;-73